Time;durP1;ratioP1;P1;durP2;ratioP2;P2;SDS_P1;SDS_P2;PMS_P1;PMS_P2;Temp;Humidity;BMP_temperature;BMP_pressure;BME280_temperature;BME280_humidity;BME280_pressure;Samples;Min_cycle;Max_cycle;Signal;HPM_P1;HPM_P2
2023/01/25 05:22:32;;;;;;;23.90;7.90;;;;;;;1.71;100.00;101869.69;5109681;27;20331;-68
2023/01/25 05:24:58;;;;;;;31.48;8.40;;;;;;;1.74;100.00;101868.69;5108891;28;20089;-70
2023/01/25 05:27:24;;;;;;;47.33;10.35;;;;;;;1.77;100.00;101863.28;5108339;28;20039;-68
2023/01/25 05:29:53;;;;;;;32.45;10.10;;;;;;;1.81;100.00;101865.66;5109982;28;20073;-68
2023/01/25 05:32:22;;;;;;;31.05;8.60;;;;;;;1.85;100.00;101867.22;5108544;28;20032;-69
2023/01/25 05:34:48;;;;;;;27.20;8.95;;;;;;;1.79;100.00;101856.16;5108402;28;20127;-67
2023/01/25 05:37:17;;;;;;;25.17;7.75;;;;;;;1.85;100.00;101863.75;5107370;28;20047;-67
2023/01/25 05:39:44;;;;;;;28.50;9.85;;;;;;;1.83;100.00;101858.59;5107661;28;20054;-66
2023/01/25 05:42:12;;;;;;;19.80;8.20;;;;;;;1.81;100.00;101855.16;5109066;28;20031;-67
2023/01/25 05:44:37;;;;;;;;;;;;;;;1.74;100.00;101864.28;5107994;27;20059;-67
2023/01/25 05:47:05;;;;;;;32.22;8.35;;;;;;;1.77;100.00;101852.78;5107460;28;19974;-67
2023/01/25 05:49:30;;;;;;;27.20;9.75;;;;;;;1.77;100.00;101865.91;5107349;28;20075;-67
2023/01/25 05:51:56;;;;;;;31.45;8.95;;;;;;;1.71;100.00;101864.44;5107383;28;20032;-67
2023/01/25 05:54:22;;;;;;;25.65;8.48;;;;;;;1.76;100.00;101858.94;5107318;28;20035;-67
2023/01/25 05:56:57;;;;;;;23.63;7.63;;;;;;;1.70;100.00;101865.38;5107196;27;20066;-66
2023/01/25 05:59:23;;;;;;;26.17;8.73;;;;;;;1.71;100.00;101867.06;5107239;28;20039;-66
2023/01/25 06:01:49;;;;;;;22.73;7.05;;;;;;;1.74;100.00;101866.91;5107542;28;20024;-66
2023/01/25 06:04:15;;;;;;;23.77;8.02;;;;;;;1.73;100.00;101859.97;5107281;28;20038;-67
2023/01/25 06:06:41;;;;;;;23.00;7.88;;;;;;;1.72;100.00;101855.63;5107089;28;20442;-66
2023/01/25 06:09:09;;;;;;;21.02;7.07;;;;;;;1.75;100.00;101855.47;5106846;28;20039;-65
2023/01/25 06:11:34;;;;;;;20.63;6.50;;;;;;;1.73;100.00;101848.59;5107512;28;20408;-66
2023/01/25 06:14:00;;;;;;;26.17;6.32;;;;;;;1.60;100.00;101845.75;5107328;28;20039;-68
2023/01/25 06:16:26;;;;;;;19.70;7.97;;;;;;;1.62;100.00;101842.09;5108760;28;20032;-67
2023/01/25 06:19:00;;;;;;;18.73;5.88;;;;;;;1.70;100.00;101839.09;5108253;28;20044;-67
2023/01/25 06:21:53;;;;;;;22.15;7.90;;;;;;;1.67;100.00;101830.50;5107218;28;20128;-67
2023/01/25 06:24:18;;;;;;;17.70;6.65;;;;;;;1.62;100.00;101828.97;5108814;28;20484;-67
2023/01/25 06:26:44;;;;;;;18.70;7.40;;;;;;;1.51;100.00;101828.66;5108511;28;20133;-68
2023/01/25 06:29:09;;;;;;;17.27;6.93;;;;;;;1.58;100.00;101822.19;5108116;28;20488;-66
2023/01/25 06:31:35;;;;;;;23.42;8.18;;;;;;;1.59;100.00;101823.03;5108141;28;20150;-65
2023/01/25 06:34:03;;;;;;;21.00;7.38;;;;;;;1.62;100.00;101820.22;5093945;28;20040;-67
2023/01/25 06:36:29;;;;;;;27.17;8.85;;;;;;;1.60;100.00;101827.34;5092992;28;20046;-67
2023/01/25 06:38:54;;;;;;;20.88;8.13;;;;;;;1.55;100.00;101824.94;5094158;28;20036;-66
2023/01/25 06:41:21;;;;;;;20.20;7.45;;;;;;;1.56;100.00;101817.91;5093185;28;20040;-66
2023/01/25 06:43:49;;;;;;;21.35;7.13;;;;;;;1.56;100.00;101820.53;5094295;28;20082;-66
2023/01/25 06:46:15;;;;;;;17.23;6.70;;;;;;;1.59;100.00;101825.66;5094287;28;20040;-66
2023/01/25 06:48:41;;;;;;;18.00;6.65;;;;;;;1.51;100.00;101817.31;5092680;28;20036;-66
2023/01/25 06:51:09;;;;;;;19.10;7.28;;;;;;;1.57;100.00;101820.50;5093942;28;20119;-66
2023/01/25 06:53:38;;;;;;;16.60;6.07;;;;;;;1.62;100.00;101818.44;5094117;28;20039;-66
2023/01/25 06:56:04;;;;;;;27.48;7.78;;;;;;;1.63;100.00;101829.84;5094064;28;20048;-66
2023/01/25 06:58:31;;;;;;;17.35;6.95;;;;;;;1.56;100.00;101820.53;5093701;28;20506;-66
2023/01/25 07:01:02;;;;;;;12.75;5.63;;;;;;;1.47;100.00;101826.25;5094029;28;20056;-65
2023/01/25 07:03:29;;;;;;;25.10;7.63;;;;;;;1.56;100.00;101820.53;5093937;28;20476;-64
2023/01/25 07:06:04;;;;;;;21.48;8.00;;;;;;;1.46;100.00;101827.19;5093798;28;20027;-65
2023/01/25 07:08:31;;;;;;;18.02;6.25;;;;;;;1.51;100.00;101817.31;5093616;28;20149;-66
2023/01/25 07:11:00;;;;;;;24.63;7.30;;;;;;;1.48;100.00;101828.81;5093696;28;20103;-67
2023/01/25 07:13:28;;;;;;;18.65;7.22;;;;;;;1.48;100.00;101820.94;5093784;28;20039;-66
2023/01/25 07:16:02;;;;;;;17.42;6.35;;;;;;;1.54;100.00;101822.41;5094033;28;20093;-67
2023/01/25 07:18:29;;;;;;;18.50;6.63;;;;;;;1.48;100.00;101815.69;5093388;28;20461;-67
2023/01/25 07:21:02;;;;;;;23.35;8.45;;;;;;;1.47;100.00;101823.63;5093702;28;20047;-67
2023/01/25 07:23:31;;;;;;;17.75;6.75;;;;;;;1.38;100.00;101818.84;5093848;28;20028;-66
2023/01/25 07:25:57;;;;;;;16.10;7.25;;;;;;;1.45;100.00;101820.25;5092153;28;20097;-67
2023/01/25 07:28:22;;;;;;;17.20;6.72;;;;;;;1.42;100.00;101825.63;5093223;28;20036;-66
2023/01/25 07:30:48;;;;;;;20.05;7.43;;;;;;;1.43;100.00;101820.31;5093405;28;20037;-67
2023/01/25 07:33:14;;;;;;;19.25;7.40;;;;;;;1.50;100.00;101826.97;5093394;28;20040;-66
2023/01/25 07:35:39;;;;;;;17.00;8.07;;;;;;;1.40;100.00;101823.09;5093272;28;20044;-66
2023/01/25 07:38:05;;;;;;;20.50;7.40;;;;;;;1.47;100.00;101818.38;5092915;28;20051;-66
2023/01/25 07:40:30;;;;;;;18.90;7.78;;;;;;;1.38;100.00;101821.47;5093207;28;20032;-67
2023/01/25 07:42:57;;;;;;;16.42;6.80;;;;;;;1.50;100.00;101819.09;5093477;28;20040;-64
2023/01/25 07:45:29;;;;;;;20.07;8.00;;;;;;;1.34;100.00;101818.16;5090726;28;20047;-64
2023/01/25 07:47:58;;;;;;;13.43;6.13;;;;;;;1.33;100.00;101819.91;5092642;28;20286;-63
2023/01/25 07:50:28;;;;;;;13.18;6.10;;;;;;;1.39;100.00;101817.94;5092955;28;20043;-66
2023/01/25 07:52:53;;;;;;;18.13;6.80;;;;;;;1.34;100.00;101821.63;5092948;28;20069;-66
2023/01/25 07:55:20;;;;;;;17.70;6.57;;;;;;;1.45;100.00;101826.34;5078143;28;20044;-66
2023/01/25 07:57:45;;;;;;;15.70;7.28;;;;;;;1.40;100.00;101828.34;5071049;28;20479;-65
2023/01/25 08:00:12;;;;;;;13.00;6.45;;;;;;;1.26;100.00;101809.81;5072839;28;20055;-66
2023/01/25 08:02:38;;;;;;;19.67;8.43;;;;;;;1.41;100.00;101829.19;5072725;28;20044;-64
2023/01/25 08:05:05;;;;;;;16.17;6.40;;;;;;;1.41;100.00;101824.78;5072646;28;20086;-66
2023/01/25 08:07:30;;;;;;;18.20;6.78;;;;;;;1.41;100.00;101816.06;5072077;28;20032;-64
2023/01/25 08:09:56;;;;;;;12.43;6.78;;;;;;;1.32;100.00;101823.47;5072516;28;20504;-65
2023/01/25 08:12:21;;;;;;;17.88;6.47;;;;;;;1.35;100.00;101823.31;5072116;28;20037;-66
2023/01/25 08:14:48;;;;;;;18.55;7.18;;;;;;;1.42;100.00;101823.84;5072402;28;20063;-67
2023/01/25 08:17:14;;;;;;;15.45;6.68;;;;;;;1.39;100.00;101820.56;5071802;28;20044;-67
2023/01/25 08:19:39;;;;;;;16.70;7.53;;;;;;;1.38;100.00;101821.47;5072080;28;20451;-66
2023/01/25 08:22:06;;;;;;;23.85;8.02;;;;;;;1.29;100.00;101814.88;5072005;28;20052;-67
2023/01/25 08:24:31;;;;;;;22.90;7.43;;;;;;;1.35;100.00;101818.06;5072171;28;20115;-67
2023/01/25 08:26:57;;;;;;;12.98;5.32;;;;;;;1.39;100.00;101818.78;5071744;28;20520;-59
2023/01/25 08:29:23;;;;;;;22.98;9.15;;;;;;;1.45;100.00;101820.25;5071876;28;20043;-59
2023/01/25 08:31:48;;;;;;;17.55;6.53;;;;;;;1.53;100.00;101823.34;5071911;28;20042;-56
2023/01/25 08:34:14;;;;;;;20.75;6.78;;;;;;;1.42;100.00;101820.38;5070574;28;20044;-66
2023/01/25 08:36:39;;;;;;;21.85;7.63;;;;;;;1.51;100.00;101812.91;5072100;28;20148;-66
2023/01/25 08:39:06;;;;;;;21.23;7.97;;;;;;;1.50;100.00;101812.97;5071775;28;20063;-66
2023/01/25 08:41:33;;;;;;;19.60;7.10;;;;;;;1.37;100.00;101810.13;5071788;28;20481;-67
2023/01/25 08:43:59;;;;;;;23.95;7.38;;;;;;;1.45;100.00;101810.59;5071884;28;20482;-66
2023/01/25 08:46:28;;;;;;;14.32;6.70;;;;;;;1.46;100.00;101803.56;5071701;28;20046;-67
2023/01/25 08:48:55;;;;;;;20.65;6.88;;;;;;;1.46;100.00;101804.41;5071037;28;20028;-66
2023/01/25 08:51:21;;;;;;;24.42;7.88;;;;;;;1.41;100.00;101808.19;5071190;28;20038;-66
2023/01/25 08:53:47;;;;;;;14.30;6.72;;;;;;;1.48;100.00;101806.94;5071673;28;20032;-66
2023/01/25 08:56:14;;;;;;;21.13;6.57;;;;;;;1.42;100.00;101794.13;5071307;28;20116;-67
2023/01/25 08:58:44;;;;;;;16.20;6.80;;;;;;;1.52;100.00;101800.63;5071195;28;20029;-67
2023/01/25 09:01:11;;;;;;;22.50;6.85;;;;;;;1.56;100.00;101802.16;5071780;28;20054;-67
2023/01/25 09:03:39;;;;;;;17.77;7.25;;;;;;;1.58;100.00;101793.28;5082547;28;20074;-66
2023/01/25 09:06:06;;;;;;;14.10;5.88;;;;;;;1.62;100.00;101801.84;5090940;28;20492;-67
2023/01/25 09:08:32;;;;;;;17.40;6.88;;;;;;;1.64;100.00;101794.75;5089922;28;20408;-66
2023/01/25 09:11:02;;;;;;;21.48;7.38;;;;;;;1.65;100.00;101792.97;5091504;28;20044;-67
2023/01/25 09:13:28;;;;;;;20.80;7.68;;;;;;;1.68;100.00;101795.44;5090669;28;20461;-67
2023/01/25 09:16:01;;;;;;;15.70;6.65;;;;;;;1.73;100.00;101794.28;5091393;28;20119;-65
2023/01/25 09:18:28;;;;;;;16.83;6.70;;;;;;;1.71;100.00;101792.66;5090871;28;20024;-67
2023/01/25 09:20:54;;;;;;;21.80;7.28;;;;;;;1.68;100.00;101791.03;5091474;28;20032;-67
2023/01/25 09:23:21;;;;;;;15.98;6.43;;;;;;;1.67;100.00;101791.97;5091528;28;20036;-67
2023/01/25 09:25:47;;;;;;;26.08;7.70;;;;;;;1.65;100.00;101795.59;5091471;28;20346;-67
2023/01/25 09:28:12;;;;;;;12.30;5.97;;;;;;;1.68;100.00;101793.66;5091244;28;20043;-66
2023/01/25 09:30:38;;;;;;;12.02;6.85;;;;;;;1.69;100.00;101776.94;5091439;28;20047;-66
2023/01/25 09:33:04;;;;;;;24.08;8.25;;;;;;;1.80;100.00;101789.56;5090151;28;20032;-67
2023/01/25 09:35:30;;;;;;;19.80;7.82;;;;;;;1.83;100.00;101792.03;5091387;28;20070;-66
2023/01/25 09:37:56;;;;;;;18.95;6.80;;;;;;;1.85;100.00;101787.53;5091181;28;20044;-67
2023/01/25 09:40:23;;;;;;;18.55;7.82;;;;;;;1.83;100.00;101779.75;5091457;28;20053;-68
2023/01/25 09:43:01;;;;;;;16.87;7.90;;;;;;;1.87;100.00;101785.66;5091285;28;20343;-69
2023/01/25 09:45:32;;;;;;;12.13;6.93;;;;;;;1.86;100.00;101784.81;5070823;28;20428;-68
2023/01/25 09:48:19;;;;;;;17.50;5.82;;;;;;;1.90;100.00;101788.16;5070014;28;20036;-69
2023/01/25 09:51:11;;;;;;;16.67;6.22;;;;;;;1.87;100.00;101781.25;5070821;28;20448;-69
2023/01/25 09:53:46;;;;;;;18.30;6.72;;;;;;;1.91;100.00;101784.59;5071250;28;20111;-66
2023/01/25 09:56:22;;;;;;;17.75;6.47;;;;;;;1.83;100.00;101776.28;5070907;28;20508;-67
2023/01/25 09:58:50;;;;;;;23.60;6.95;;;;;;;1.91;100.00;101779.34;5069977;28;20036;-67
2023/01/25 10:02:24;;;;;;;24.15;6.85;;;;;;;1.96;100.00;101779.94;5070727;28;20119;-66
2023/01/25 10:04:52;;;;;;;16.52;7.43;;;;;;;1.96;100.00;101773.84;4995992;28;20047;-68
2023/01/25 10:07:37;;;;;;;18.52;6.93;;;;;;;1.97;100.00;101776.38;5031378;28;20919;-68
2023/01/25 10:10:13;;;;;;;22.65;8.02;;;;;;;2.01;100.00;101777.91;5070071;28;20101;-67
2023/01/25 10:12:39;;;;;;;20.27;7.30;;;;;;;2.03;100.00;101777.84;5074605;28;20458;-67
2023/01/25 10:15:21;;;;;;;14.15;6.45;;;;;;;2.05;100.00;101768.09;5074389;28;20131;-68
2023/01/25 10:18:11;;;;;;;19.85;8.35;;;;;;;2.06;100.00;101775.88;5072349;28;20097;-67
2023/01/25 10:20:45;;;;;;;22.88;6.45;;;;;;;2.17;100.00;101776.19;5074294;28;20020;-66
2023/01/25 10:23:35;;;;;;;13.85;5.15;;;;;;;2.16;100.00;101771.00;5074152;28;20041;-67
2023/01/25 10:26:08;;;;;;;11.68;5.47;;;;;;;2.17;100.00;101772.69;5074024;28;20028;-66
2023/01/25 10:29:07;;;;;;;10.27;4.95;;;;;;;2.17;100.00;101760.41;5073559;28;20045;-67
2023/01/25 10:31:45;;;;;;;15.98;6.45;;;;;;;2.26;100.00;101755.56;5074272;28;20123;-66
2023/01/25 10:34:31;;;;;;;14.98;5.15;;;;;;;2.23;100.00;101755.75;5074386;28;20043;-69
2023/01/25 10:37:01;;;;;;;12.43;4.95;;;;;;;2.07;100.00;101750.44;5074104;28;20060;-66
2023/01/25 10:39:28;;;;;;;12.48;5.05;;;;;;;2.12;100.00;101751.91;5074057;28;20086;-69
2023/01/25 10:41:58;;;;;;;10.30;4.47;;;;;;;2.20;100.00;101756.75;5074078;28;20040;-67
2023/01/25 10:44:24;;;;;;;16.40;5.82;;;;;;;2.29;100.00;101750.16;5074090;28;20048;-66
2023/01/25 10:47:11;;;;;;;9.70;4.50;;;;;;;2.28;100.00;101749.31;5089591;28;20040;-67
2023/01/25 10:49:41;;;;;;;11.02;4.63;;;;;;;2.28;100.00;101749.31;5074118;28;20029;-67
2023/01/25 10:52:13;;;;;;;10.50;4.68;;;;;;;2.30;100.00;101738.72;5073894;28;20049;-67
2023/01/25 10:54:38;;;;;;;13.18;4.55;;;;;;;2.31;100.00;101738.63;5074036;28;20546;-64
2023/01/25 10:57:11;;;;;;;10.88;4.53;;;;;;;2.33;100.00;101736.75;5073662;28;20056;-65
2023/01/25 10:59:37;;;;;;;12.05;5.70;;;;;;;2.33;100.00;101734.09;5073783;28;20029;-66
2023/01/25 11:02:40;;;;;;;13.40;4.93;;;;;;;2.27;100.00;101738.84;5073804;28;20024;-67
2023/01/25 11:05:36;;;;;;;11.13;5.15;;;;;;;2.28;100.00;101730.91;5073661;28;20389;-67
2023/01/25 11:08:20;;;;;;;12.10;5.72;;;;;;;2.37;100.00;101738.28;5068986;28;20048;-67
2023/01/25 11:10:46;;;;;;;8.30;5.07;;;;;;;2.40;100.00;101726.72;5073529;28;20032;-67
2023/01/25 11:13:14;;;;;;;11.20;5.38;;;;;;;2.41;100.00;101712.63;5073611;28;20036;-67
2023/01/25 11:15:44;;;;;;;9.07;4.55;;;;;;;2.41;100.00;101718.78;5073410;28;20032;-68
2023/01/25 11:18:27;;;;;;;15.32;6.15;;;;;;;2.40;100.00;101711.78;5073557;28;20446;-67
2023/01/25 11:21:22;;;;;;;9.50;4.93;;;;;;;2.37;100.00;101705.88;5073460;28;20032;-67
2023/01/25 11:24:13;;;;;;;14.82;5.30;;;;;;;2.47;100.00;101695.69;5073331;28;20044;-66
2023/01/25 11:26:40;;;;;;;10.60;5.18;;;;;;;2.45;100.00;101693.13;5071955;28;20426;-66
2023/01/25 11:29:18;;;;;;;16.02;5.47;;;;;;;2.51;100.00;101698.06;5071650;28;20140;-66
2023/01/25 11:31:46;;;;;;;19.63;6.50;;;;;;;2.54;100.00;101689.13;5073301;28;20134;-67
2023/01/25 11:34:15;;;;;;;10.70;5.80;;;;;;;2.36;100.00;101675.25;5095797;23;20063;-70
2023/01/25 11:37:14;;;;;;;14.48;5.20;;;;;;;2.39;100.00;101670.66;5073261;28;20139;-68
2023/01/25 11:39:49;;;;;;;14.65;5.57;;;;;;;2.40;100.00;101661.81;5073238;28;20473;-68
2023/01/25 11:42:43;;;;;;;12.60;6.20;;;;;;;2.44;100.00;101658.09;5073203;28;20452;-69
2023/01/25 11:45:30;;;;;;;11.27;6.00;;;;;;;2.47;100.00;101658.84;5053220;28;20051;-68
2023/01/25 11:48:24;;;;;;;15.07;6.82;;;;;;;2.38;100.00;101655.81;5052736;28;20071;-69
2023/01/25 11:51:07;;;;;;;15.05;5.35;;;;;;;2.33;100.00;101644.69;5052908;28;20537;-69
2023/01/25 11:53:38;;;;;;;15.80;7.57;;;;;;;2.40;100.00;101650.47;5052894;28;20040;-69
2023/01/25 11:56:14;;;;;;;20.23;7.25;;;;;;;2.34;100.00;101635.88;5053017;28;20370;-69
2023/01/25 11:58:39;;;;;;;15.88;5.68;;;;;;;2.30;100.00;101629.09;5052513;28;20079;-69
2023/01/25 12:01:24;;;;;;;19.15;7.13;;;;;;;2.36;100.00;101631.38;5052738;28;20081;-68
2023/01/25 12:04:14;;;;;;;14.27;6.72;;;;;;;2.39;100.00;101625.94;5052650;28;20036;-69
2023/01/25 12:06:57;;;;;;;15.60;5.97;;;;;;;2.40;100.00;101622.38;5041526;28;20497;-68
2023/01/25 12:09:44;;;;;;;10.93;5.05;;;;;;;2.35;100.00;101611.28;5052525;28;20033;-65
2023/01/25 12:12:20;;;;;;;10.60;5.47;;;;;;;2.36;100.00;101599.84;5052409;28;20033;-68
2023/01/25 12:14:48;;;;;;;21.23;8.30;;;;;;;2.39;100.00;101607.53;5052441;28;20481;-66
2023/01/25 12:17:13;;;;;;;;;;;;;;;2.40;100.00;101592.59;5052585;28;20043;-68
2023/01/25 12:20:13;;;;;;;15.00;6.65;;;;;;;2.35;100.00;101592.88;5052710;28;19912;-69
2023/01/25 12:22:54;;;;;;;15.13;6.82;;;;;;;2.28;100.00;101590.66;5053637;28;20033;-68
2023/01/25 12:25:43;;;;;;;8.85;5.15;;;;;;;2.31;100.00;101583.47;5052501;28;20036;-69
2023/01/25 12:28:28;;;;;;;13.02;6.20;;;;;;;2.31;100.00;101567.69;5051582;28;20044;-68
2023/01/25 12:31:03;;;;;;;10.13;5.32;;;;;;;2.27;100.00;101567.94;5051602;28;20095;-69
2023/01/25 12:33:44;;;;;;;11.20;5.05;;;;;;;2.35;99.96;101565.75;5067347;28;20436;-66
2023/01/25 12:36:20;;;;;;;10.27;4.90;;;;;;;2.28;100.00;101567.00;5052145;28;20120;-69
2023/01/25 12:38:59;;;;;;;9.27;5.15;;;;;;;2.28;99.79;101562.63;5051759;28;20056;-69
2023/01/25 12:41:38;;;;;;;12.15;4.95;;;;;;;2.20;100.00;101551.66;5052031;28;20036;-69
2023/01/25 12:44:37;;;;;;;8.90;4.53;;;;;;;2.17;100.00;101560.59;5051874;28;20029;-68
2023/01/25 12:47:09;;;;;;;11.30;4.47;;;;;;;2.08;100.00;101549.72;5051467;28;20052;-69
2023/01/25 12:49:54;;;;;;;13.32;5.55;;;;;;;2.15;100.00;101551.94;5051533;28;20454;-69
2023/01/25 12:52:29;;;;;;;11.15;5.03;;;;;;;2.20;100.00;101548.19;5051679;28;20063;-68
2023/01/25 12:54:59;;;;;;;12.70;5.38;;;;;;;2.15;99.92;101535.31;5067303;28;20082;-69
2023/01/25 12:57:34;;;;;;;10.13;5.80;;;;;;;2.14;100.00;101544.13;5051395;28;20039;-68
2023/01/25 13:00:24;;;;;;;12.43;4.88;;;;;;;2.19;99.98;101539.47;5051620;28;20065;-68
2023/01/25 13:03:13;;;;;;;9.68;4.85;;;;;;;2.20;100.00;101532.41;5051630;28;20037;-68
2023/01/25 13:06:01;;;;;;;9.27;4.45;;;;;;;2.25;99.55;101525.97;5051649;28;20037;-69
2023/01/25 13:08:42;;;;;;;23.48;8.45;;;;;;;2.27;99.47;101518.81;5044521;28;20051;-66
2023/01/25 13:11:13;;;;;;;15.90;6.40;;;;;;;2.28;99.69;101506.53;5050747;28;20032;-67
2023/01/25 13:13:39;;;;;;;12.65;5.30;;;;;;;2.17;99.63;101508.00;5051426;28;20072;-67
2023/01/25 13:16:35;;;;;;;11.25;5.20;;;;;;;2.18;99.88;101506.22;5051458;28;20037;-68
2023/01/25 13:19:00;;;;;;;9.38;5.20;;;;;;;2.20;99.92;101509.59;5051078;28;20110;-67
2023/01/25 13:21:35;;;;;;;8.45;4.50;;;;;;;2.29;99.71;101508.25;5051836;28;20739;-68
2023/01/25 13:24:20;;;;;;;8.90;4.97;;;;;;;2.30;99.56;101502.88;5051335;28;20044;-68
2023/01/25 13:26:48;;;;;;;11.50;5.65;;;;;;;2.29;99.03;101497.72;5051040;28;20393;-66
2023/01/25 13:29:44;;;;;;;11.02;4.43;;;;;;;2.11;99.71;101489.13;5050803;28;20112;-67
2023/01/25 13:32:36;;;;;;;8.68;4.88;;;;;;;2.23;99.50;101493.66;5045363;28;20409;-66
2023/01/25 13:35:03;;;;;;;6.63;4.32;;;;;;;2.30;98.89;101483.63;5020346;28;20092;-66
2023/01/25 13:37:33;;;;;;;8.43;4.85;;;;;;;2.31;98.71;101483.53;5051360;28;20033;-66
2023/01/25 13:40:27;;;;;;;12.45;5.28;;;;;;;2.31;97.87;101480.06;5051252;28;20040;-66
2023/01/25 13:43:02;;;;;;;8.93;4.72;;;;;;;2.34;97.34;101467.56;5051200;28;20041;-67
2023/01/25 13:45:30;;;;;;;15.20;5.55;;;;;;;2.22;98.29;101470.06;5055392;28;20037;-66
2023/01/25 13:48:17;;;;;;;11.13;5.88;;;;;;;2.25;98.29;101472.53;5055165;28;20113;-66
2023/01/25 13:50:51;;;;;;;12.02;5.75;;;;;;;2.23;97.49;101466.53;5055291;28;20037;-67
2023/01/25 13:53:18;;;;;;;9.80;4.88;;;;;;;2.33;97.75;101470.28;5055288;28;20174;-66
2023/01/25 13:55:53;;;;;;;10.45;4.75;;;;;;;2.33;97.50;101468.50;5055029;28;20041;-67
2023/01/25 13:58:43;;;;;;;11.55;5.95;;;;;;;2.38;97.94;101470.88;5054731;28;20033;-67
2023/01/25 14:01:18;;;;;;;9.68;4.78;;;;;;;2.38;98.31;101466.47;5055077;28;20398;-66
2023/01/25 14:03:46;;;;;;;10.95;4.88;;;;;;;2.37;98.21;101463.94;5054960;28;20040;-68
2023/01/25 14:06:16;;;;;;;;;;;;;;;2.36;98.57;101472.75;5055444;28;20086;-68
2023/01/25 14:08:43;;;;;;;11.60;4.95;;;;;;;2.37;97.59;101463.94;5054753;28;19913;-68
2023/01/25 14:11:08;;;;;;;9.80;5.50;;;;;;;2.40;98.16;101469.00;5054668;28;20048;-68
2023/01/25 14:13:34;;;;;;;10.82;5.82;;;;;;;2.39;97.53;101462.88;5054645;28;20040;-67
2023/01/25 14:16:03;;;;;;;14.15;6.30;;;;;;;2.37;97.35;101456.88;5054793;28;20118;-67
2023/01/25 14:18:32;;;;;;;10.95;5.30;;;;;;;2.15;98.72;101456.44;5053169;28;20044;-67
2023/01/25 14:21:19;;;;;;;9.93;6.28;;;;;;;2.02;99.46;101443.19;5054638;28;20127;-66
2023/01/25 14:23:45;;;;;;;10.82;6.28;;;;;;;2.22;98.98;101459.56;5053230;28;20043;-67
2023/01/25 14:26:19;;;;;;;15.10;6.05;;;;;;;2.25;99.26;101449.72;5054802;28;20385;-67
2023/01/25 14:28:47;;;;;;;9.60;5.47;;;;;;;2.27;98.38;101439.09;5053032;28;20036;-67
2023/01/25 14:31:22;;;;;;;10.63;6.45;;;;;;;2.29;98.16;101432.81;5054289;28;20505;-67
2023/01/25 14:33:53;;;;;;;12.10;5.07;;;;;;;2.29;97.89;101432.00;5054472;28;20048;-66
2023/01/25 14:36:20;;;;;;;10.90;6.00;;;;;;;2.28;97.96;101433.78;5054470;28;20025;-67
2023/01/25 14:38:45;;;;;;;9.70;5.55;;;;;;;2.23;98.10;101435.81;5054030;28;20037;-67
2023/01/25 14:41:34;;;;;;;12.65;5.35;;;;;;;2.31;97.42;101425.69;5054218;28;20040;-67
2023/01/25 14:44:09;;;;;;;7.57;5.10;;;;;;;2.10;98.29;101403.31;5054237;28;20036;-67
2023/01/25 14:46:36;;;;;;;11.63;5.20;;;;;;;2.31;97.60;101416.94;5054119;28;20440;-67
2023/01/25 14:49:26;;;;;;;6.70;4.18;;;;;;;2.32;96.22;101418.63;5052467;28;20113;-67
2023/01/25 14:52:11;;;;;;;11.32;4.55;;;;;;;2.36;96.96;101421.00;5053296;28;20445;-67
2023/01/25 14:54:56;;;;;;;10.50;6.18;;;;;;;2.35;96.11;101407.97;5053625;28;20033;-67
2023/01/25 14:57:38;;;;;;;11.07;5.32;;;;;;;2.29;96.72;101406.53;5053990;28;20094;-67
2023/01/25 15:00:31;;;;;;;9.60;5.00;;;;;;;2.29;96.35;101414.41;5054150;28;20037;-66
2023/01/25 15:02:59;;;;;;;10.18;5.28;;;;;;;2.28;96.51;101404.84;5054046;28;20393;-66
2023/01/25 15:05:30;;;;;;;7.75;4.78;;;;;;;2.28;96.68;101394.31;5054105;28;20037;-67
2023/01/25 15:08:17;;;;;;;10.70;5.25;;;;;;;2.31;96.18;101388.03;5054082;28;20040;-67
2023/01/25 15:10:52;;;;;;;7.87;5.23;;;;;;;2.30;96.29;101384.56;5039567;28;20482;-68
2023/01/25 15:13:21;;;;;;;10.70;4.95;;;;;;;2.32;96.75;101379.19;5052606;28;20043;-67
2023/01/25 15:16:00;;;;;;;14.93;6.53;;;;;;;2.28;97.44;101375.94;5053927;28;20555;-66
2023/01/25 15:18:50;;;;;;;8.05;4.75;;;;;;;2.32;96.96;101377.41;5053424;28;20041;-67
2023/01/25 15:21:29;;;;;;;11.75;5.45;;;;;;;2.31;96.64;101380.13;5053541;28;20037;-66
2023/01/25 15:23:56;;;;;;;11.23;4.35;;;;;;;2.32;96.63;101374.78;5053405;28;20119;-66
2023/01/25 15:26:29;;;;;;;10.82;5.80;;;;;;;2.32;96.96;101377.41;5053692;28;20037;-68
2023/01/25 15:28:57;;;;;;;9.27;4.90;;;;;;;2.31;96.23;101375.72;5053187;28;20025;-66
2023/01/25 15:31:32;;;;;;;9.43;5.13;;;;;;;2.40;96.12;101369.91;5053203;28;20124;-67
2023/01/25 15:34:00;;;;;;;8.52;4.43;;;;;;;2.32;95.02;101371.31;5051814;28;20130;-67
2023/01/25 15:36:26;;;;;;;9.45;3.92;;;;;;;2.29;95.45;101361.84;5053248;28;20037;-67
2023/01/25 15:38:51;;;;;;;7.40;4.35;;;;;;;2.16;96.08;101360.88;5052794;28;20432;-68
2023/01/25 15:41:20;;;;;;;6.47;4.60;;;;;;;2.17;97.14;101359.94;5053425;28;20043;-66
2023/01/25 15:43:46;;;;;;;6.60;3.80;;;;;;;2.12;97.09;101359.38;5053258;28;20078;-67
2023/01/25 15:46:21;;;;;;;9.40;3.92;;;;;;;2.20;95.92;101354.47;5053308;28;20533;-68
2023/01/25 15:48:48;;;;;;;7.40;3.60;;;;;;;2.04;96.05;101345.84;5052725;28;20103;-68
2023/01/25 15:51:14;;;;;;;9.43;4.35;;;;;;;2.04;96.25;101351.09;5052639;28;20033;-68
2023/01/25 15:53:40;;;;;;;8.70;4.53;;;;;;;2.08;96.33;101342.06;5052884;28;20521;-68
2023/01/25 15:56:19;;;;;;;6.95;3.88;;;;;;;2.09;96.33;101333.28;5052837;28;20037;-68
2023/01/25 15:58:49;;;;;;;8.68;4.03;;;;;;;2.13;96.08;101332.97;5052564;28;20378;-68
2023/01/25 16:01:14;;;;;;;6.30;3.85;;;;;;;2.14;95.56;101325.94;5052689;28;20029;-68
2023/01/25 16:03:40;;;;;;;6.97;4.32;;;;;;;2.04;96.47;101330.91;5052563;28;20116;-67
2023/01/25 16:06:20;;;;;;;6.88;3.72;;;;;;;2.05;96.03;101323.88;5051831;28;20478;-68
2023/01/25 16:08:45;;;;;;;9.23;4.32;;;;;;;2.04;96.58;101324.81;5052232;28;20116;-67
2023/01/25 16:11:11;;;;;;;10.82;5.05;;;;;;;2.05;96.38;101327.34;5052552;28;20136;-68
2023/01/25 16:13:36;;;;;;;5.63;3.85;;;;;;;1.88;96.87;101317.00;5051439;28;20143;-66
2023/01/25 16:16:02;;;;;;;7.72;4.38;;;;;;;1.92;96.99;101323.75;5052373;28;20467;-68
2023/01/25 16:18:27;;;;;;;9.15;4.13;;;;;;;1.87;97.18;101325.81;5050949;28;20047;-68
2023/01/25 16:20:53;;;;;;;7.82;4.53;;;;;;;1.78;97.90;101318.50;5052387;28;20040;-68
2023/01/25 16:23:18;;;;;;;10.38;4.95;;;;;;;1.82;97.39;101326.06;5052148;28;20047;-68
2023/01/25 16:25:47;;;;;;;9.00;4.38;;;;;;;1.79;97.27;101322.81;5052277;28;20045;-68
2023/01/25 16:28:14;;;;;;;9.75;4.38;;;;;;;1.80;97.75;101321.84;5051900;28;20068;-69
2023/01/25 16:30:40;;;;;;;8.32;4.38;;;;;;;1.82;97.76;101319.97;5058142;28;20519;-67
2023/01/25 16:33:05;;;;;;;7.78;4.05;;;;;;;1.89;96.98;101316.03;5071932;28;20045;-69
2023/01/25 16:35:31;;;;;;;9.80;5.40;;;;;;;1.82;97.19;101312.94;5071989;28;20043;-68
2023/01/25 16:37:56;;;;;;;8.35;4.35;;;;;;;1.88;97.40;101315.19;5071573;28;20118;-68
2023/01/25 16:40:28;;;;;;;8.18;4.43;;;;;;;1.85;97.80;101306.69;5071863;28;20068;-68
2023/01/25 16:42:55;;;;;;;8.85;4.40;;;;;;;1.79;97.74;101305.25;5071319;28;20032;-66
2023/01/25 16:45:22;;;;;;;7.93;4.78;;;;;;;1.74;98.18;101306.47;5072195;28;20024;-65
2023/01/25 16:47:49;;;;;;;8.20;4.90;;;;;;;1.77;98.72;101314.19;5071824;28;20123;-65
2023/01/25 16:50:17;;;;;;;5.60;3.80;;;;;;;1.71;98.72;101309.28;5072143;28;20402;-65
2023/01/25 16:52:44;;;;;;;11.63;5.35;;;;;;;1.72;98.57;101309.19;5072006;28;20076;-65
2023/01/25 16:55:10;;;;;;;7.97;4.55;;;;;;;1.77;98.47;101308.91;5072103;28;20056;-66
2023/01/25 16:57:37;;;;;;;7.65;4.53;;;;;;;1.79;98.12;101309.66;5071770;28;20033;-65
2023/01/25 17:00:04;;;;;;;10.43;5.03;;;;;;;1.78;98.29;101311.44;5072145;28;20100;-65
2023/01/25 17:02:30;;;;;;;6.05;4.20;;;;;;;1.79;97.76;101305.25;5072070;28;20033;-65
2023/01/25 17:04:55;;;;;;;8.63;4.13;;;;;;;1.81;97.45;101300.75;5070554;28;20490;-68
2023/01/25 17:07:20;;;;;;;9.95;4.50;;;;;;;1.82;97.51;101297.16;5071561;28;20040;-64